createdAt,value
2018-07-06T00:00:41.562Z,8.37
2018-07-06T00:03:28.148Z,9.20
2018-07-06T00:06:14.769Z,9.70
2018-07-06T00:09:01.395Z,9.13
2018-07-06T00:11:47.843Z,9.03
2018-07-06T00:14:28.356Z,8.00
2018-07-06T00:17:14.762Z,10.07
2018-07-06T00:20:01.462Z,9.13
2018-07-06T00:22:47.938Z,9.03
2018-07-06T00:25:34.366Z,10.03
2018-07-06T00:28:20.695Z,10.70
2018-07-06T00:31:06.908Z,9.60
2018-07-06T00:33:53.367Z,11.30
2018-07-06T00:36:39.821Z,11.37
2018-07-06T00:39:26.161Z,10.57
2018-07-06T00:42:12.528Z,10.83
2018-07-06T00:44:59.159Z,11.27
2018-07-06T00:47:45.568Z,11.33
2018-07-06T00:50:31.868Z,10.77
2018-07-06T00:53:18.234Z,9.97
2018-07-06T00:56:04.577Z,9.87
2018-07-06T00:58:50.846Z,9.63
2018-07-06T01:01:37.361Z,10.30
2018-07-06T01:04:23.622Z,10.50
2018-07-06T01:07:09.951Z,10.30
2018-07-06T01:09:56.654Z,11.33
2018-07-06T01:12:48.459Z,8.90
2018-07-06T01:15:35.146Z,9.20
2018-07-06T01:18:21.764Z,9.03
2018-07-06T01:21:08.243Z,10.23
2018-07-06T01:23:55.079Z,8.53
2018-07-06T01:26:41.487Z,9.07
2018-07-06T01:29:27.936Z,9.30
2018-07-06T01:32:14.468Z,10.80
2018-07-06T01:35:01.079Z,7.63
2018-07-06T01:37:47.674Z,8.27
2018-07-06T01:40:34.241Z,8.03
2018-07-06T01:43:20.333Z,8.77
2018-07-06T01:46:06.788Z,7.13
2018-07-06T01:48:53.100Z,7.97
2018-07-06T01:51:39.583Z,7.67
2018-07-06T01:54:25.995Z,8.17
2018-07-06T01:57:12.497Z,8.03
2018-07-06T01:59:59.060Z,7.67
2018-07-06T02:02:45.559Z,7.30
2018-07-06T02:05:31.964Z,8.73
2018-07-06T02:08:18.309Z,6.63
2018-07-06T02:11:04.721Z,7.87
2018-07-06T02:13:51.265Z,6.80
2018-07-06T02:16:37.660Z,8.43
2018-07-06T02:19:23.880Z,6.03
2018-07-06T02:22:10.357Z,8.10
2018-07-06T02:24:56.635Z,5.30
2018-07-06T02:27:43.150Z,7.27
2018-07-06T02:30:29.685Z,4.93
2018-07-06T02:33:10.312Z,5.40
2018-07-06T02:35:56.663Z,4.70
2018-07-06T02:54:39.405Z,5.10
2018-07-06T02:57:25.730Z,5.17
2018-07-06T03:00:12.094Z,5.27
2018-07-06T03:02:58.413Z,5.63
2018-07-06T03:05:44.839Z,5.20
2018-07-06T03:08:31.152Z,5.80
2018-07-06T03:11:17.358Z,5.20
2018-07-06T03:14:03.533Z,5.80
2018-07-06T03:16:50.013Z,4.90
2018-07-06T03:19:36.418Z,5.53
2018-07-06T03:22:22.834Z,5.13
2018-07-06T03:25:08.910Z,4.63
2018-07-06T03:27:55.601Z,6.47
2018-07-06T03:30:41.689Z,5.57
2018-07-06T03:33:27.911Z,5.20
2018-07-06T03:36:14.325Z,5.20
2018-07-06T03:39:00.697Z,5.43
2018-07-06T03:41:47.175Z,6.20
2018-07-06T03:44:33.508Z,7.17
2018-07-06T03:47:19.884Z,7.03
2018-07-06T03:50:00.171Z,6.70
2018-07-06T03:52:46.704Z,6.80
2018-07-06T03:55:33.332Z,7.13
2018-07-06T03:58:19.564Z,7.23
2018-07-06T04:01:06.073Z,7.87
2018-07-06T04:03:52.394Z,9.27
2018-07-06T04:06:38.707Z,7.53
2018-07-06T04:09:24.872Z,7.70
2018-07-06T04:12:11.157Z,8.20
2018-07-06T04:14:57.767Z,8.97
2018-07-06T04:17:44.125Z,9.43
2018-07-06T04:20:30.558Z,9.57
2018-07-06T04:23:17.010Z,8.73
2018-07-06T04:26:03.385Z,9.70
2018-07-06T04:28:49.744Z,9.67
2018-07-06T04:31:36.332Z,10.57
2018-07-06T04:34:22.852Z,11.83
2018-07-06T04:37:09.492Z,11.37
2018-07-06T04:39:55.688Z,11.73
2018-07-06T04:42:42.021Z,12.90
2018-07-06T04:45:28.105Z,11.30
2018-07-06T04:48:14.552Z,13.63
2018-07-06T04:51:01.173Z,12.43
2018-07-06T04:53:47.673Z,13.83
2018-07-06T04:56:33.967Z,12.80
2018-07-06T04:59:20.281Z,14.77
2018-07-06T05:02:06.516Z,13.23
2018-07-06T05:04:52.945Z,18.07
2018-07-06T05:23:24.942Z,16.13
2018-07-06T05:26:11.432Z,16.60
2018-07-06T05:28:57.858Z,16.50
2018-07-06T05:31:44.203Z,16.93
2018-07-06T05:34:30.579Z,17.17
2018-07-06T05:37:17.008Z,18.17
2018-07-06T05:40:03.476Z,16.73
2018-07-06T05:42:49.592Z,18.43
2018-07-06T05:45:35.868Z,19.70
2018-07-06T05:48:22.324Z,14.60
2018-07-06T05:51:08.828Z,14.23
2018-07-06T05:53:55.360Z,14.20
2018-07-06T05:56:41.725Z,13.33
2018-07-06T05:59:28.311Z,12.27
2018-07-06T06:02:14.771Z,17.47
2018-07-06T06:05:01.104Z,12.47
2018-07-06T06:07:29.284Z,10.23
2018-07-06T06:09:58.842Z,9.77
2018-07-06T06:12:28.813Z,10.33
2018-07-06T06:14:58.524Z,10.20
2018-07-06T06:17:28.711Z,9.63
2018-07-06T06:19:58.532Z,8.60
2018-07-06T06:22:28.210Z,10.60
2018-07-06T06:24:57.847Z,10.10
2018-07-06T06:27:27.451Z,9.10
2018-07-06T06:29:57.151Z,11.43
2018-07-06T06:32:26.751Z,9.53
2018-07-06T06:34:56.494Z,10.07
2018-07-06T06:37:32.173Z,10.10
2018-07-06T06:40:01.936Z,9.43
2018-07-06T06:42:31.730Z,9.03
2018-07-06T06:45:02.862Z,10.70
2018-07-06T06:47:32.536Z,9.67
2018-07-06T06:50:02.641Z,10.07
2018-07-06T06:52:32.359Z,9.20
2018-07-06T06:55:02.000Z,9.40
2018-07-06T06:57:31.635Z,10.97
2018-07-06T07:00:01.537Z,9.50
2018-07-06T07:02:31.219Z,10.33
2018-07-06T07:05:01.102Z,11.03
2018-07-06T07:07:31.126Z,11.40
2018-07-06T07:10:01.143Z,10.30
2018-07-06T07:12:31.114Z,12.23
2018-07-06T07:15:00.909Z,11.77
2018-07-06T07:17:30.644Z,15.60
2018-07-06T07:20:01.098Z,13.67
2018-07-06T07:22:30.683Z,14.43
2018-07-06T07:25:00.420Z,14.57
2018-07-06T07:27:30.177Z,13.20
2018-07-06T07:30:00.429Z,13.13
2018-07-06T07:32:30.163Z,15.83
2018-07-06T07:34:59.956Z,15.53
2018-07-06T07:37:29.642Z,15.60
2018-07-06T07:39:59.614Z,15.57
2018-07-06T07:42:29.409Z,15.13
2018-07-06T07:44:59.064Z,14.20
2018-07-06T07:47:28.708Z,14.17
2018-07-06T07:49:58.326Z,13.63
2018-07-06T07:52:45.004Z,14.03
2018-07-06T07:55:14.685Z,13.40
2018-07-06T07:57:44.642Z,14.83
2018-07-06T08:00:16.547Z,11.00
2018-07-06T08:02:46.332Z,11.97
2018-07-06T08:05:16.104Z,12.63
2018-07-06T08:07:45.845Z,10.80
2018-07-06T08:10:15.566Z,12.17
2018-07-06T08:12:45.327Z,10.03
2018-07-06T08:15:15.283Z,10.10
2018-07-06T08:17:44.991Z,10.27
2018-07-06T08:20:14.696Z,11.90
2018-07-06T08:22:44.376Z,10.43
2018-07-06T08:25:13.944Z,10.03
2018-07-06T08:27:43.664Z,10.07
2018-07-06T08:30:13.342Z,9.40
2018-07-06T08:32:42.986Z,9.57
2018-07-06T08:35:29.454Z,9.30
2018-07-06T08:38:02.837Z,9.40
2018-07-06T08:40:32.490Z,9.23
2018-07-06T08:43:03.559Z,9.67
2018-07-06T08:45:34.026Z,10.83
2018-07-06T08:48:03.814Z,10.57
2018-07-06T08:50:33.457Z,8.90
2018-07-06T08:53:03.159Z,9.17
2018-07-06T08:55:32.962Z,9.03
2018-07-06T08:58:02.648Z,10.10
2018-07-06T09:00:32.298Z,9.20
2018-07-06T09:03:02.112Z,7.97
2018-07-06T09:05:31.768Z,9.07
2018-07-06T09:08:01.622Z,7.47
2018-07-06T09:10:31.337Z,9.60
2018-07-06T09:13:01.353Z,8.03
2018-07-06T09:15:30.981Z,6.30
2018-07-06T09:18:00.873Z,6.37
2018-07-06T09:20:30.542Z,8.13
2018-07-06T09:23:00.250Z,5.90
2018-07-06T09:25:29.967Z,7.77
2018-07-06T09:27:59.582Z,5.10
2018-07-06T09:30:29.181Z,6.77
2018-07-06T09:32:58.770Z,6.67
2018-07-06T09:35:28.420Z,5.10
2018-07-06T09:37:58.055Z,5.00
2018-07-06T09:40:27.693Z,5.40
2018-07-06T09:42:57.359Z,4.40
2018-07-06T09:45:27.159Z,4.30
2018-07-06T09:47:57.631Z,5.53
2018-07-06T09:50:27.423Z,4.40
2018-07-06T09:52:57.712Z,5.27
2018-07-06T09:55:27.155Z,5.20
2018-07-06T09:57:56.818Z,4.73
2018-07-06T10:00:38.213Z,4.30
2018-07-06T10:03:08.070Z,5.80
2018-07-06T10:05:37.610Z,6.07
2018-07-06T10:08:07.276Z,5.10
2018-07-06T10:10:37.879Z,5.00
2018-07-06T10:13:07.539Z,6.27
2018-07-06T10:15:37.100Z,5.93
2018-07-06T10:18:13.554Z,4.77
2018-07-06T10:20:43.301Z,5.13
2018-07-06T10:23:12.961Z,5.03
2018-07-06T10:25:42.681Z,4.67
2018-07-06T10:29:32.380Z,8.53
2018-07-06T10:32:18.183Z,6.12
2018-07-06T10:34:47.799Z,4.83
2018-07-06T10:37:18.085Z,7.33
2018-07-06T10:39:48.513Z,6.10
2018-07-06T10:42:18.071Z,9.03
2018-07-06T10:44:47.840Z,4.30
2018-07-06T10:47:17.453Z,4.80
2018-07-06T10:49:47.141Z,3.83
2018-07-06T10:52:17.379Z,4.25
2018-07-06T10:54:47.261Z,5.43
2018-07-06T10:57:17.011Z,5.42
2018-07-06T10:59:46.654Z,3.55
2018-07-06T11:02:16.268Z,3.45
2018-07-06T11:04:46.024Z,5.83
2018-07-06T11:07:15.736Z,4.30
2018-07-06T11:09:45.364Z,7.55
2018-07-06T11:12:15.060Z,4.25
2018-07-06T11:14:44.667Z,3.72
2018-07-06T11:17:14.381Z,3.80
2018-07-06T11:19:44.028Z,3.87
2018-07-06T11:22:13.737Z,6.67
2018-07-06T11:24:43.343Z,3.90
2018-07-06T11:27:12.965Z,4.20
2018-07-06T11:29:42.615Z,3.73
2018-07-06T11:32:12.338Z,5.73
2018-07-06T11:34:41.961Z,4.10
2018-07-06T11:37:11.310Z,4.63
2018-07-06T11:39:40.964Z,4.67
2018-07-06T11:42:10.552Z,5.23
2018-07-06T11:44:40.212Z,6.17
2018-07-06T11:47:09.781Z,4.60
2018-07-06T11:49:39.489Z,5.13
2018-07-06T11:52:09.196Z,3.73
2018-07-06T11:54:39.776Z,3.40
2018-07-06T11:57:09.453Z,5.70
2018-07-06T11:59:39.109Z,4.23
2018-07-06T12:02:08.965Z,3.70
2018-07-06T12:04:38.789Z,7.87
2018-07-06T12:07:08.271Z,5.53
2018-07-06T12:09:37.986Z,5.17
2018-07-06T12:12:07.641Z,4.23
2018-07-06T12:14:37.304Z,5.93
2018-07-06T12:17:07.206Z,5.13
2018-07-06T12:19:37.082Z,5.10
2018-07-06T12:22:07.272Z,3.53
2018-07-06T12:24:36.858Z,8.03
2018-07-06T12:27:07.032Z,7.37
2018-07-06T12:29:36.753Z,6.37
2018-07-06T12:32:13.230Z,4.33
2018-07-06T12:34:43.044Z,3.93
2018-07-06T12:37:12.697Z,5.13
2018-07-06T12:39:42.541Z,4.37
2018-07-06T12:42:12.604Z,6.60
2018-07-06T12:44:42.199Z,5.83
2018-07-06T12:47:11.928Z,9.83
2018-07-06T12:49:41.505Z,5.83
2018-07-06T12:52:11.129Z,3.30
2018-07-06T12:54:40.771Z,5.97
2018-07-06T12:57:10.255Z,5.17
2018-07-06T12:59:39.937Z,5.47
2018-07-06T13:02:09.781Z,6.53
2018-07-06T13:04:39.567Z,8.80
2018-07-06T13:07:09.197Z,4.03
2018-07-06T13:09:38.806Z,3.80
2018-07-06T13:12:08.562Z,8.50
2018-07-06T13:14:38.324Z,9.20
2018-07-06T13:17:08.130Z,4.20
2018-07-06T13:19:37.748Z,5.67
2018-07-06T13:22:09.691Z,10.97
2018-07-06T13:24:39.362Z,4.40
2018-07-06T13:27:09.164Z,5.50
2018-07-06T13:29:38.812Z,8.13
2018-07-06T13:32:09.012Z,5.73
2018-07-06T13:34:38.945Z,8.43
2018-07-06T13:37:08.775Z,7.50
2018-07-06T13:39:38.448Z,5.47
2018-07-06T13:42:08.319Z,5.77
2018-07-06T13:44:38.044Z,3.20
2018-07-06T13:47:07.926Z,6.20
2018-07-06T13:49:37.603Z,5.43
2018-07-06T13:52:07.336Z,6.10
2018-07-06T13:54:37.202Z,5.10
2018-07-06T13:57:06.927Z,6.53
2018-07-06T13:59:36.796Z,4.97
2018-07-06T14:02:06.605Z,4.10
2018-07-06T14:04:36.365Z,5.47
2018-07-06T14:07:06.313Z,4.47
2018-07-06T14:09:35.924Z,4.73
2018-07-06T14:12:05.863Z,3.73
2018-07-06T14:14:35.608Z,6.47
2018-07-06T14:17:05.265Z,4.63
2018-07-06T14:19:34.903Z,3.83
2018-07-06T14:22:07.561Z,4.90
2018-07-06T14:24:37.279Z,3.37
2018-07-06T14:27:07.403Z,7.43
2018-07-06T14:29:37.147Z,4.97
2018-07-06T14:32:06.826Z,3.70
2018-07-06T14:34:36.576Z,3.93
2018-07-06T14:37:06.239Z,3.60
2018-07-06T14:39:35.860Z,5.07
2018-07-06T14:42:05.600Z,5.70
2018-07-06T14:44:35.224Z,3.10
2018-07-06T14:47:04.974Z,5.90
2018-07-06T14:49:34.621Z,5.07
2018-07-06T14:52:04.261Z,3.50
2018-07-06T14:54:33.985Z,3.37
2018-07-06T14:57:03.759Z,3.27
2018-07-06T14:59:33.796Z,3.47
2018-07-06T15:02:03.578Z,3.87
2018-07-06T15:04:33.261Z,2.63
2018-07-06T15:07:03.238Z,3.10
2018-07-06T15:09:32.856Z,5.47
2018-07-06T15:12:02.583Z,6.20
2018-07-06T15:14:32.225Z,3.20
2018-07-06T15:17:01.857Z,3.53
2018-07-06T15:19:31.432Z,2.10
2018-07-06T15:22:01.076Z,2.70
2018-07-06T15:24:30.730Z,3.13
2018-07-06T15:27:00.315Z,2.70
2018-07-06T15:29:29.950Z,5.63
2018-07-06T15:31:59.660Z,6.03
2018-07-06T15:34:30.072Z,4.30
2018-07-06T15:36:59.999Z,3.47
2018-07-06T15:39:29.631Z,3.50
2018-07-06T15:41:59.292Z,7.03
2018-07-06T15:44:29.141Z,2.70
2018-07-06T15:46:58.789Z,3.13
2018-07-06T15:49:28.453Z,4.40
2018-07-06T15:51:58.061Z,4.40
2018-07-06T15:54:27.956Z,2.93
2018-07-06T15:56:57.546Z,5.43
2018-07-06T15:59:27.175Z,6.40
2018-07-06T16:01:56.860Z,2.90
2018-07-06T16:04:26.628Z,5.17
2018-07-06T16:06:56.288Z,4.63
2018-07-06T16:09:26.024Z,5.23
2018-07-06T16:11:55.739Z,3.80
2018-07-06T16:14:25.414Z,3.93
2018-07-06T16:16:55.048Z,3.97
2018-07-06T16:19:24.683Z,6.07
2018-07-06T16:21:54.702Z,2.37
2018-07-06T16:24:24.440Z,3.53
2018-07-06T16:26:54.305Z,3.87
2018-07-06T16:29:24.071Z,4.77
2018-07-06T16:31:53.750Z,4.30
2018-07-06T16:34:23.910Z,6.70
2018-07-06T16:36:54.176Z,6.77
2018-07-06T16:39:23.973Z,4.27
2018-07-06T16:41:53.792Z,5.70
2018-07-06T16:44:23.934Z,8.37
2018-07-06T16:46:53.678Z,3.83
2018-07-06T16:49:23.856Z,6.77
2018-07-06T16:51:53.764Z,4.20
2018-07-06T16:54:23.840Z,1.97
2018-07-06T16:56:53.758Z,3.20
2018-07-06T16:59:23.677Z,3.33
2018-07-06T17:01:53.900Z,5.47
2018-07-06T17:04:23.686Z,2.33
2018-07-06T17:06:53.361Z,4.47
2018-07-06T17:09:23.163Z,2.80
2018-07-06T17:11:53.042Z,4.60
2018-07-06T17:14:22.828Z,5.17
2018-07-06T17:16:52.424Z,3.40
2018-07-06T17:19:22.061Z,4.57
2018-07-06T17:21:51.635Z,5.87
2018-07-06T17:24:21.256Z,5.10
2018-07-06T17:26:50.934Z,5.77
2018-07-06T17:29:20.505Z,6.03
2018-07-06T17:31:50.212Z,3.50
2018-07-06T17:34:19.853Z,5.00
2018-07-06T17:36:49.583Z,6.53
2018-07-06T17:39:19.321Z,4.00
2018-07-06T17:41:49.237Z,4.27
2018-07-06T17:44:19.001Z,6.13
2018-07-06T17:46:48.577Z,4.13
2018-07-06T17:49:18.189Z,4.33
2018-07-06T17:51:47.916Z,4.53
2018-07-06T17:54:17.591Z,6.50
2018-07-06T17:56:47.238Z,7.33
2018-07-06T17:59:17.004Z,4.60
2018-07-06T18:01:46.602Z,4.80
2018-07-06T18:04:16.164Z,5.30
2018-07-06T18:06:45.879Z,4.10
2018-07-06T18:09:15.648Z,3.23
2018-07-06T18:11:45.226Z,6.40
2018-07-06T18:14:14.897Z,4.07
2018-07-06T18:16:44.526Z,9.00
2018-07-06T18:19:14.173Z,3.97
2018-07-06T18:21:43.926Z,6.03
2018-07-06T18:24:13.621Z,5.53
2018-07-06T18:26:43.151Z,5.57
2018-07-06T18:29:12.840Z,6.97
2018-07-06T18:31:42.557Z,5.33
2018-07-06T18:34:12.202Z,3.03
2018-07-06T18:36:42.169Z,5.77
2018-07-06T18:39:11.868Z,7.67
2018-07-06T18:41:41.501Z,4.70
2018-07-06T18:44:11.168Z,5.67
2018-07-06T18:46:40.808Z,3.37
2018-07-06T18:49:10.535Z,3.33
2018-07-06T18:51:40.186Z,2.93
2018-07-06T18:54:09.809Z,4.70
2018-07-06T18:56:39.443Z,4.93
2018-07-06T18:59:09.169Z,4.43
2018-07-06T19:01:38.822Z,8.03
2018-07-06T19:04:09.306Z,5.13
2018-07-06T19:06:38.946Z,3.73
2018-07-06T19:09:08.754Z,4.90
2018-07-06T19:11:38.397Z,4.00
2018-07-06T19:14:08.100Z,4.43
2018-07-06T19:16:37.883Z,3.53
2018-07-06T19:19:07.913Z,5.47
2018-07-06T19:21:37.875Z,7.83
2018-07-06T19:24:07.891Z,6.87
2018-07-06T19:26:38.079Z,5.17
2018-07-06T19:29:07.919Z,5.17
2018-07-06T19:31:37.866Z,5.37
2018-07-06T19:34:07.640Z,3.80
2018-07-06T19:36:38.722Z,4.53
2018-07-06T19:39:08.421Z,5.97
2018-07-06T19:41:38.308Z,5.37
2018-07-06T19:44:08.295Z,4.07
2018-07-06T19:46:38.369Z,4.57
2018-07-06T19:49:07.950Z,5.67
2018-07-06T19:51:38.072Z,4.20
2018-07-06T19:54:07.859Z,3.63
2018-07-06T19:56:37.803Z,5.03
2018-07-06T19:59:07.518Z,7.43
2018-07-06T20:01:37.483Z,5.43
2018-07-06T20:04:07.524Z,4.33
2018-07-06T20:06:37.372Z,5.83
2018-07-06T20:09:08.399Z,3.13
2018-07-06T20:11:38.321Z,3.63
2018-07-06T20:14:08.041Z,3.73
2018-07-06T20:16:38.045Z,2.33
2018-07-06T20:19:07.722Z,5.70
2018-07-06T20:21:37.359Z,3.97
2018-07-06T20:24:07.079Z,8.13
2018-07-06T20:26:36.885Z,5.87
2018-07-06T20:29:06.661Z,3.63
2018-07-06T20:31:36.301Z,2.17
2018-07-06T20:34:06.013Z,8.47
2018-07-06T20:36:35.915Z,4.43
2018-07-06T20:39:05.732Z,3.03
2018-07-06T20:41:35.432Z,5.47
2018-07-06T20:44:05.190Z,3.43
2018-07-06T20:46:34.906Z,3.47
2018-07-06T20:49:04.560Z,3.47
2018-07-06T20:51:34.180Z,5.07
2018-07-06T20:54:03.918Z,6.87
2018-07-06T20:56:33.705Z,6.03
2018-07-06T20:59:03.465Z,7.13
2018-07-06T21:01:33.214Z,4.17
2018-07-06T21:04:03.029Z,7.50
2018-07-06T21:06:32.777Z,3.77
2018-07-06T21:09:02.563Z,6.63
2018-07-06T21:11:32.286Z,5.27
2018-07-06T21:14:02.234Z,6.57
2018-07-06T21:16:31.991Z,6.03
2018-07-06T21:19:01.729Z,7.70
2018-07-06T21:21:31.384Z,4.40
2018-07-06T21:24:01.033Z,4.43
2018-07-06T21:26:30.672Z,3.87
2018-07-06T21:29:00.280Z,12.60
2018-07-06T21:31:29.994Z,6.60
2018-07-06T21:33:59.767Z,6.23
2018-07-06T21:36:29.526Z,8.30
2018-07-06T21:38:59.269Z,4.17
2018-07-06T21:41:29.106Z,3.67
2018-07-06T21:43:59.028Z,3.17
2018-07-06T21:46:28.813Z,4.20
2018-07-06T21:48:58.528Z,4.13
2018-07-06T21:51:28.281Z,6.10
2018-07-06T21:53:58.148Z,5.90
2018-07-06T21:56:27.901Z,3.87
2018-07-06T21:58:57.870Z,4.07
2018-07-06T22:01:27.578Z,5.40
2018-07-06T22:03:57.281Z,3.83
2018-07-06T22:06:27.849Z,6.30
2018-07-06T22:08:57.559Z,2.97
2018-07-06T22:11:27.281Z,3.50
2018-07-06T22:13:57.015Z,4.20
2018-07-06T22:16:27.264Z,4.77
2018-07-06T22:18:57.037Z,6.00
2018-07-06T22:21:26.669Z,7.17
2018-07-06T22:23:56.304Z,4.60
2018-07-06T22:26:25.948Z,6.30
2018-07-06T22:28:55.583Z,4.50
2018-07-06T22:31:25.294Z,3.73
2018-07-06T22:33:54.941Z,4.87
2018-07-06T22:36:24.752Z,5.47
2018-07-06T22:38:54.344Z,5.07
2018-07-06T22:41:24.042Z,3.73
2018-07-06T22:43:53.783Z,4.97
2018-07-06T22:46:23.453Z,3.27
2018-07-06T22:48:53.177Z,4.27
2018-07-06T22:51:22.839Z,3.33
2018-07-06T22:53:52.543Z,4.37
2018-07-06T22:56:22.181Z,2.53
2018-07-06T22:58:51.915Z,5.87
2018-07-06T23:01:21.520Z,2.93
2018-07-06T23:03:51.402Z,4.80
2018-07-06T23:06:21.292Z,6.27
2018-07-06T23:08:51.123Z,4.20
2018-07-06T23:11:20.831Z,5.93
2018-07-06T23:13:50.467Z,6.93
2018-07-06T23:16:20.156Z,6.33
2018-07-06T23:18:49.876Z,5.07
2018-07-06T23:21:19.571Z,5.23
2018-07-06T23:23:49.312Z,4.33
2018-07-06T23:26:19.022Z,6.87
2018-07-06T23:28:48.887Z,5.00
2018-07-06T23:31:18.536Z,4.60
2018-07-06T23:33:48.284Z,4.73
2018-07-06T23:36:18.129Z,5.93
2018-07-06T23:38:47.898Z,3.90
2018-07-06T23:41:17.694Z,5.27
2018-07-06T23:43:47.371Z,3.87
2018-07-06T23:46:17.184Z,4.83
2018-07-06T23:48:46.976Z,4.83
2018-07-06T23:51:16.662Z,7.23
2018-07-06T23:53:46.332Z,5.03
2018-07-06T23:56:19.316Z,5.23
2018-07-06T23:58:49.047Z,5.03
